sensor_id;sensor_type;location;lat;lon;timestamp;pressure;altitude;pressure_sealevel;temperature;humidity
15932;BME280;8065;49.520;11.284;2023-04-02T00:01:36;96581.22;;;12.35;85.47
15932;BME280;8065;49.520;11.284;2023-04-02T00:04:05;96581.97;;;12.35;84.89
15932;BME280;8065;49.520;11.284;2023-04-02T00:06:38;96585.78;;;12.34;85.46
15932;BME280;8065;49.520;11.284;2023-04-02T00:09:25;96587.25;;;12.32;85.51
15932;BME280;8065;49.520;11.284;2023-04-02T00:11:55;96591.16;;;12.38;85.36
15932;BME280;8065;49.520;11.284;2023-04-02T00:14:24;96592.72;;;12.39;85.25
15932;BME280;8065;49.520;11.284;2023-04-02T00:16:52;96595.72;;;12.37;85.07
15932;BME280;8065;49.520;11.284;2023-04-02T00:19:29;96599.59;;;12.40;85.18
15932;BME280;8065;49.520;11.284;2023-04-02T00:21:57;96606.44;;;12.41;84.84
15932;BME280;8065;49.520;11.284;2023-04-02T00:24:25;96599.09;;;12.34;84.80
15932;BME280;8065;49.520;11.284;2023-04-02T00:26:53;96607.56;;;12.40;84.65
15932;BME280;8065;49.520;11.284;2023-04-02T00:29:21;96605.13;;;12.31;84.89
15932;BME280;8065;49.520;11.284;2023-04-02T00:31:50;96607.84;;;12.35;84.89
15932;BME280;8065;49.520;11.284;2023-04-02T00:34:20;96608.63;;;12.35;84.58
15932;BME280;8065;49.520;11.284;2023-04-02T00:36:49;96617.59;;;12.27;84.88
15932;BME280;8065;49.520;11.284;2023-04-02T00:39:19;96616.97;;;12.34;85.05
15932;BME280;8065;49.520;11.284;2023-04-02T00:41:47;96622.38;;;12.37;84.82
15932;BME280;8065;49.520;11.284;2023-04-02T00:44:19;96614.78;;;12.39;84.71
15932;BME280;8065;49.520;11.284;2023-04-02T00:46:47;96619.34;;;12.39;84.66
15932;BME280;8065;49.520;11.284;2023-04-02T00:49:25;96616.81;;;12.27;85.28
15932;BME280;8065;49.520;11.284;2023-04-02T00:51:57;96625.78;;;12.19;85.46
15932;BME280;8065;49.520;11.284;2023-04-02T00:54:26;96625.94;;;12.26;85.53
15932;BME280;8065;49.520;11.284;2023-04-02T00:56:56;96621.44;;;12.30;85.53
15932;BME280;8065;49.520;11.284;2023-04-02T00:59:26;96621.88;;;12.32;85.32
15932;BME280;8065;49.520;11.284;2023-04-02T01:01:57;96628.38;;;12.34;85.17
15932;BME280;8065;49.520;11.284;2023-04-02T01:04:29;96631.06;;;12.34;85.44
15932;BME280;8065;49.520;11.284;2023-04-02T01:06:59;96623.84;;;12.35;85.42
15932;BME280;8065;49.520;11.284;2023-04-02T01:09:39;96630.41;;;12.22;86.16
15932;BME280;8065;49.520;11.284;2023-04-02T01:12:20;96634.41;;;12.31;85.83
15932;BME280;8065;49.520;11.284;2023-04-02T01:14:57;96638.28;;;12.34;85.68
15932;BME280;8065;49.520;11.284;2023-04-02T01:17:41;96634.50;;;12.35;85.88
15932;BME280;8065;49.520;11.284;2023-04-02T01:20:55;96636.03;;;12.36;85.90
15932;BME280;8065;49.520;11.284;2023-04-02T01:23:26;96639.91;;;12.38;86.11
15932;BME280;8065;49.520;11.284;2023-04-02T01:25:58;96634.50;;;12.35;86.08
15932;BME280;8065;49.520;11.284;2023-04-02T01:28:33;96639.06;;;12.34;86.77
15932;BME280;8065;49.520;11.284;2023-04-02T01:31:03;96638.28;;;12.34;87.06
15932;BME280;8065;49.520;11.284;2023-04-02T01:33:32;96640.53;;;12.32;87.13
15932;BME280;8065;49.520;11.284;2023-04-02T01:36:08;96641.97;;;12.29;87.52
15932;BME280;8065;49.520;11.284;2023-04-02T01:38:39;96647.81;;;12.35;87.20
15932;BME280;8065;49.520;11.284;2023-04-02T01:41:17;96648.84;;;12.30;87.36
15932;BME280;8065;49.520;11.284;2023-04-02T01:43:48;96650.06;;;12.33;87.48
15932;BME280;8065;49.520;11.284;2023-04-02T01:46:28;96661.13;;;12.35;86.81
15932;BME280;8065;49.520;11.284;2023-04-02T01:48:56;96659.50;;;12.30;87.31
15932;BME280;8065;49.520;11.284;2023-04-02T01:51:27;96660.56;;;12.26;87.58
15932;BME280;8065;49.520;11.284;2023-04-02T01:53:55;96661.53;;;12.18;88.50
15932;BME280;8065;49.520;11.284;2023-04-02T01:56:25;96665.47;;;12.24;87.77
15932;BME280;8065;49.520;11.284;2023-04-02T01:58:51;96667.84;;;12.29;87.64
15932;BME280;8065;49.520;11.284;2023-04-02T02:01:19;96668.56;;;12.26;87.43
15932;BME280;8065;49.520;11.284;2023-04-02T02:03:50;96666.38;;;12.31;87.30
15932;BME280;8065;49.520;11.284;2023-04-02T02:06:17;96676.28;;;12.31;87.30
15932;BME280;8065;49.520;11.284;2023-04-02T02:08:47;96674.38;;;12.31;86.98
15932;BME280;8065;49.520;11.284;2023-04-02T02:11:17;96669.47;;;12.33;87.07
15932;BME280;8065;49.520;11.284;2023-04-02T02:13:47;96664.91;;;12.34;86.74
15932;BME280;8065;49.520;11.284;2023-04-02T02:16:16;96674.09;;;12.36;86.69
15932;BME280;8065;49.520;11.284;2023-04-02T02:18:45;96669.63;;;12.40;86.59
15932;BME280;8065;49.520;11.284;2023-04-02T02:21:23;96669.19;;;12.38;86.38
15932;BME280;8065;49.520;11.284;2023-04-02T02:23:54;96679.94;;;12.42;86.69
15932;BME280;8065;49.520;11.284;2023-04-02T02:26:22;96677.88;;;12.35;86.18
15932;BME280;8065;49.520;11.284;2023-04-02T02:28:54;96687.19;;;12.26;86.56
15932;BME280;8065;49.520;11.284;2023-04-02T02:31:23;96686.41;;;12.25;86.57
15932;BME280;8065;49.520;11.284;2023-04-02T02:33:55;96685.16;;;12.19;86.94
15932;BME280;8065;49.520;11.284;2023-04-02T02:36:27;96686.63;;;12.17;86.29
15932;BME280;8065;49.520;11.284;2023-04-02T02:39:01;96697.75;;;12.03;87.28
15932;BME280;8065;49.520;11.284;2023-04-02T02:41:34;96693.34;;;12.10;86.75
15932;BME280;8065;49.520;11.284;2023-04-02T02:44:05;96694.25;;;12.18;86.44
15932;BME280;8065;49.520;11.284;2023-04-02T02:46:38;96702.31;;;12.22;86.21
15932;BME280;8065;49.520;11.284;2023-04-02T02:49:06;96698.88;;;12.21;86.18
15932;BME280;8065;49.520;11.284;2023-04-02T02:51:44;96699.66;;;12.22;86.16
15932;BME280;8065;49.520;11.284;2023-04-02T02:54:12;96708.06;;;12.24;86.25
15932;BME280;8065;49.520;11.284;2023-04-02T02:56:43;96717.03;;;12.15;86.36
15932;BME280;8065;49.520;11.284;2023-04-02T02:59:13;96707.16;;;12.16;86.39
15932;BME280;8065;49.520;11.284;2023-04-02T03:01:41;96714.09;;;12.21;86.35
15932;BME280;8065;49.520;11.284;2023-04-02T03:04:09;96709.63;;;12.25;86.22
15932;BME280;8065;49.520;11.284;2023-04-02T03:06:35;96726.56;;;12.17;86.46
15932;BME280;8065;49.520;11.284;2023-04-02T03:09:13;96714.19;;;12.24;86.38
15932;BME280;8065;49.520;11.284;2023-04-02T03:11:48;96732.91;;;12.28;86.18
15932;BME280;8065;49.520;11.284;2023-04-02T03:14:21;96728.28;;;12.25;86.29
15932;BME280;8065;49.520;11.284;2023-04-02T03:16:51;96737.63;;;12.19;86.38
15932;BME280;8065;49.520;11.284;2023-04-02T03:19:27;96745.38;;;12.24;86.38
15932;BME280;8065;49.520;11.284;2023-04-02T03:22:00;96742.19;;;12.18;86.47
15932;BME280;8065;49.520;11.284;2023-04-02T03:24:35;96743.66;;;12.15;86.31
15932;BME280;8065;49.520;11.284;2023-04-02T03:27:06;96743.81;;;12.23;86.40
15932;BME280;8065;49.520;11.284;2023-04-02T03:29:39;96750.69;;;12.24;86.20
15932;BME280;8065;49.520;11.284;2023-04-02T03:32:13;96751.38;;;12.21;86.67
15932;BME280;8065;49.520;11.284;2023-04-02T03:34:45;96750.78;;;12.27;86.17
15932;BME280;8065;49.520;11.284;2023-04-02T03:37:16;96757.31;;;12.30;86.05
15932;BME280;8065;49.520;11.284;2023-04-02T03:39:49;96756.44;;;12.26;86.11
15932;BME280;8065;49.520;11.284;2023-04-02T03:42:21;96762.03;;;12.21;86.22
15932;BME280;8065;49.520;11.284;2023-04-02T03:44:53;96755.75;;;12.29;86.25
15932;BME280;8065;49.520;11.284;2023-04-02T03:47:27;96759.81;;;12.23;86.70
15932;BME280;8065;49.520;11.284;2023-04-02T03:49:59;96766.00;;;12.27;86.65
15932;BME280;8065;49.520;11.284;2023-04-02T03:52:28;96764.44;;;12.26;86.76
15932;BME280;8065;49.520;11.284;2023-04-02T03:54:58;96764.19;;;12.31;86.36
15932;BME280;8065;49.520;11.284;2023-04-02T03:57:30;96767.53;;;12.28;86.30
15932;BME280;8065;49.520;11.284;2023-04-02T04:00:03;96767.53;;;12.28;86.43
15932;BME280;8065;49.520;11.284;2023-04-02T04:02:34;96772.44;;;12.26;86.53
15932;BME280;8065;49.520;11.284;2023-04-02T04:05:05;96775.59;;;12.31;86.54
15932;BME280;8065;49.520;11.284;2023-04-02T04:07:35;96775.09;;;12.26;86.55
15932;BME280;8065;49.520;11.284;2023-04-02T04:10:07;96778.88;;;12.25;86.73
15932;BME280;8065;49.520;11.284;2023-04-02T04:12:35;96787.28;;;12.27;86.49
15932;BME280;8065;49.520;11.284;2023-04-02T04:15:07;96796.31;;;12.22;86.53
15932;BME280;8065;49.520;11.284;2023-04-02T04:17:43;96791.41;;;12.24;86.27
15932;BME280;8065;49.520;11.284;2023-04-02T04:20:18;96803.97;;;12.24;86.41
15932;BME280;8065;49.520;11.284;2023-04-02T04:22:47;96806.38;;;12.29;86.52
15932;BME280;8065;49.520;11.284;2023-04-02T04:25:20;96803.28;;;12.27;86.50
15932;BME280;8065;49.520;11.284;2023-04-02T04:27:57;96800.34;;;12.32;86.36
15932;BME280;8065;49.520;11.284;2023-04-02T04:30:33;96805.69;;;12.32;86.39
15932;BME280;8065;49.520;11.284;2023-04-02T04:33:11;96806.81;;;12.31;86.42
15932;BME280;8065;49.520;11.284;2023-04-02T04:35:44;96814.88;;;12.34;86.40
15932;BME280;8065;49.520;11.284;2023-04-02T04:38:15;96816.78;;;12.34;86.51
15932;BME280;8065;49.520;11.284;2023-04-02T04:40:45;96817.81;;;12.29;86.46
15932;BME280;8065;49.520;11.284;2023-04-02T04:43:18;96826.13;;;12.28;86.61
15932;BME280;8065;49.520;11.284;2023-04-02T04:45:49;96819.44;;;12.34;86.54
15932;BME280;8065;49.520;11.284;2023-04-02T04:48:22;96830.88;;;12.34;86.55
15932;BME280;8065;49.520;11.284;2023-04-02T04:50:53;96829.75;;;12.35;86.54
15932;BME280;8065;49.520;11.284;2023-04-02T04:53:24;96836.72;;;12.40;86.41
15932;BME280;8065;49.520;11.284;2023-04-02T04:55:54;96843.16;;;12.39;86.31
15932;BME280;8065;49.520;11.284;2023-04-02T04:58:26;96842.47;;;12.42;86.34
15932;BME280;8065;49.520;11.284;2023-04-02T05:01:03;96842.03;;;12.40;86.52
15932;BME280;8065;49.520;11.284;2023-04-02T05:03:34;96853.56;;;12.44;86.46
15932;BME280;8065;49.520;11.284;2023-04-02T05:06:08;96857.00;;;12.44;86.58
15932;BME280;8065;49.520;11.284;2023-04-02T05:08:40;96859.31;;;12.46;86.05
15932;BME280;8065;49.520;11.284;2023-04-02T05:11:13;96859.31;;;12.46;86.68
15932;BME280;8065;49.520;11.284;2023-04-02T05:13:46;96860.84;;;12.47;86.38
15932;BME280;8065;49.520;11.284;2023-04-02T05:16:17;96868.00;;;12.43;86.85
15932;BME280;8065;49.520;11.284;2023-04-02T05:18:51;96866.63;;;12.33;87.01
15932;BME280;8065;49.520;11.284;2023-04-02T05:21:25;96870.56;;;12.39;87.00
15932;BME280;8065;49.520;11.284;2023-04-02T05:23:57;96874.44;;;12.42;86.75
15932;BME280;8065;49.520;11.284;2023-04-02T05:26:29;96875.28;;;12.46;86.79
15932;BME280;8065;49.520;11.284;2023-04-02T05:29:00;96883.53;;;12.41;87.01
15932;BME280;8065;49.520;11.284;2023-04-02T05:31:37;96881.75;;;12.45;87.00
15932;BME280;8065;49.520;11.284;2023-04-02T05:34:05;96891.97;;;12.43;87.18
15932;BME280;8065;49.520;11.284;2023-04-02T05:36:32;96892.66;;;12.40;87.27
15932;BME280;8065;49.520;11.284;2023-04-02T05:38:58;96893.25;;;12.33;87.53
15932;BME280;8065;49.520;11.284;2023-04-02T05:41:27;96890.25;;;12.35;87.26
15932;BME280;8065;49.520;11.284;2023-04-02T05:44:04;96904.44;;;12.39;87.43
15932;BME280;8065;49.520;11.284;2023-04-02T05:46:34;96905.13;;;12.36;87.68
15932;BME280;8065;49.520;11.284;2023-04-02T05:49:05;96904.78;;;12.37;87.79
15932;BME280;8065;49.520;11.284;2023-04-02T05:51:37;96903.31;;;12.40;87.57
15932;BME280;8065;49.520;11.284;2023-04-02T05:54:14;96904.59;;;12.46;87.42
15932;BME280;8065;49.520;11.284;2023-04-02T05:56:46;96903.50;;;12.47;87.81
15932;BME280;8065;49.520;11.284;2023-04-02T05:59:17;96914.91;;;12.32;87.72
15932;BME280;8065;49.520;11.284;2023-04-02T06:01:48;96919.53;;;12.19;88.56
15932;BME280;8065;49.520;11.284;2023-04-02T06:04:21;96924.03;;;12.31;88.00
15932;BME280;8065;49.520;11.284;2023-04-02T06:06:57;96926.00;;;12.34;87.94
15932;BME280;8065;49.520;11.284;2023-04-02T06:09:30;96929.34;;;12.31;88.13
15932;BME280;8065;49.520;11.284;2023-04-02T06:12:20;96928.56;;;12.30;88.60
15932;BME280;8065;49.520;11.284;2023-04-02T06:14:48;96935.19;;;12.36;88.40
15932;BME280;8065;49.520;11.284;2023-04-02T06:17:17;96940.53;;;12.36;88.35
15932;BME280;8065;49.520;11.284;2023-04-02T06:19:45;96936.75;;;12.37;88.21
15932;BME280;8065;49.520;11.284;2023-04-02T06:22:19;96935.97;;;12.37;88.48
15932;BME280;8065;49.520;11.284;2023-04-02T06:24:51;96948.19;;;12.38;88.54
15932;BME280;8065;49.520;11.284;2023-04-02T06:27:22;96953.75;;;12.33;88.72
15932;BME280;8065;49.520;11.284;2023-04-02T06:29:54;96960.13;;;12.44;88.49
15932;BME280;8065;49.520;11.284;2023-04-02T06:32:23;96959.53;;;12.35;88.95
15932;BME280;8065;49.520;11.284;2023-04-02T06:34:51;96959.69;;;12.42;88.80
15932;BME280;8065;49.520;11.284;2023-04-02T06:37:22;96962.13;;;12.47;88.66
15932;BME280;8065;49.520;11.284;2023-04-02T06:39:50;96972.09;;;12.50;88.80
15932;BME280;8065;49.520;11.284;2023-04-02T06:42:19;96964.09;;;12.50;88.79
15932;BME280;8065;49.520;11.284;2023-04-02T06:44:48;96973.13;;;12.45;89.00
15932;BME280;8065;49.520;11.284;2023-04-02T06:47:21;96978.72;;;12.56;89.21
15932;BME280;8065;49.520;11.284;2023-04-02T06:49:51;96983.63;;;12.54;89.16
15932;BME280;8065;49.520;11.284;2023-04-02T06:52:22;96985.16;;;12.55;89.22
15932;BME280;8065;49.520;11.284;2023-04-02T06:54:50;96988.25;;;12.57;89.37
15932;BME280;8065;49.520;11.284;2023-04-02T06:57:17;96993.16;;;12.55;89.68
15932;BME280;8065;49.520;11.284;2023-04-02T06:59:44;96992.03;;;12.56;89.12
15932;BME280;8065;49.520;11.284;2023-04-02T07:02:22;97007.06;;;12.48;89.55
15932;BME280;8065;49.520;11.284;2023-04-02T07:04:51;96999.94;;;12.53;89.47
15932;BME280;8065;49.520;11.284;2023-04-02T07:07:18;97008.28;;;12.51;89.59
15932;BME280;8065;49.520;11.284;2023-04-02T07:09:45;97015.59;;;12.54;89.71
15932;BME280;8065;49.520;11.284;2023-04-02T07:12:12;97015.16;;;12.52;89.86
15932;BME280;8065;49.520;11.284;2023-04-02T07:14:38;97015.69;;;12.58;89.64
15932;BME280;8065;49.520;11.284;2023-04-02T07:17:05;97023.34;;;12.59;89.88
15932;BME280;8065;49.520;11.284;2023-04-02T07:19:33;97026.53;;;12.65;89.92
15932;BME280;8065;49.520;11.284;2023-04-02T07:21:59;97025.66;;;12.61;90.04
15932;BME280;8065;49.520;11.284;2023-04-02T07:24:26;97023.53;;;12.66;90.17
15932;BME280;8065;49.520;11.284;2023-04-02T07:26:52;97031.28;;;12.71;89.78
15932;BME280;8065;49.520;11.284;2023-04-02T07:29:18;97032.16;;;12.75;89.86
15932;BME280;8065;49.520;11.284;2023-04-02T07:31:45;97035.94;;;12.74;89.54
15932;BME280;8065;49.520;11.284;2023-04-02T07:34:11;97041.25;;;12.74;89.53
15932;BME280;8065;49.520;11.284;2023-04-02T07:36:40;97044.34;;;12.76;89.64
15932;BME280;8065;49.520;11.284;2023-04-02T07:39:06;97045.81;;;12.74;89.90
15932;BME280;8065;49.520;11.284;2023-04-02T07:41:32;97050.97;;;12.67;89.89
15932;BME280;8065;49.520;11.284;2023-04-02T07:43:59;97052.22;;;12.57;90.55
15932;BME280;8065;49.520;11.284;2023-04-02T07:46:25;97061.34;;;12.56;90.69
15932;BME280;8065;49.520;11.284;2023-04-02T07:48:52;97062.22;;;12.60;90.33
15932;BME280;8065;49.520;11.284;2023-04-02T07:51:20;97071.63;;;12.42;89.91
15932;BME280;8065;49.520;11.284;2023-04-02T07:53:49;97079.22;;;12.28;89.63
15932;BME280;8065;49.520;11.284;2023-04-02T07:56:21;97087.69;;;12.18;90.00
15932;BME280;8065;49.520;11.284;2023-04-02T07:58:48;97086.13;;;12.17;89.74
15932;BME280;8065;49.520;11.284;2023-04-02T08:01:17;97093.28;;;12.00;88.41
15932;BME280;8065;49.520;11.284;2023-04-02T08:03:44;97094.94;;;12.05;88.87
15932;BME280;8065;49.520;11.284;2023-04-02T08:06:11;97107.50;;;11.92;89.64
15932;BME280;8065;49.520;11.284;2023-04-02T08:08:37;97109.84;;;11.94;89.16
15932;BME280;8065;49.520;11.284;2023-04-02T08:11:05;97114.84;;;11.83;89.34
15932;BME280;8065;49.520;11.284;2023-04-02T08:13:32;97119.03;;;11.72;89.23
15932;BME280;8065;49.520;11.284;2023-04-02T08:15:59;97127.00;;;11.60;89.55
15932;BME280;8065;49.520;11.284;2023-04-02T08:18:26;97129.22;;;11.70;89.00
15932;BME280;8065;49.520;11.284;2023-04-02T08:20:52;97131.09;;;11.57;90.25
15932;BME280;8065;49.520;11.284;2023-04-02T08:23:19;97130.13;;;11.62;89.69
15932;BME280;8065;49.520;11.284;2023-04-02T08:25:47;97136.44;;;11.69;89.51
15932;BME280;8065;49.520;11.284;2023-04-02T08:28:15;97145.97;;;11.70;89.26
15932;BME280;8065;49.520;11.284;2023-04-02T08:30:42;97144.66;;;11.89;87.68
15932;BME280;8065;49.520;11.284;2023-04-02T08:33:09;97152.31;;;11.90;87.43
15932;BME280;8065;49.520;11.284;2023-04-02T08:35:35;97156.09;;;11.89;87.32
15932;BME280;8065;49.520;11.284;2023-04-02T08:38:02;97168.06;;;11.83;87.44
15932;BME280;8065;49.520;11.284;2023-04-02T08:40:32;97170.97;;;11.90;87.12
15932;BME280;8065;49.520;11.284;2023-04-02T08:43:22;97178.25;;;11.69;88.03
15932;BME280;8065;49.520;11.284;2023-04-02T08:46:00;97179.56;;;11.63;88.15
15932;BME280;8065;49.520;11.284;2023-04-02T08:48:31;97187.44;;;11.71;88.23
15932;BME280;8065;49.520;11.284;2023-04-02T08:50:59;97193.22;;;11.73;87.60
15932;BME280;8065;49.520;11.284;2023-04-02T08:53:29;97197.94;;;11.43;88.15
15932;BME280;8065;49.520;11.284;2023-04-02T08:55:59;97198.84;;;11.47;89.09
15932;BME280;8065;49.520;11.284;2023-04-02T08:58:38;97208.22;;;11.33;89.54
15932;BME280;8065;49.520;11.284;2023-04-02T09:01:14;97205.22;;;11.34;87.88
15932;BME280;8065;49.520;11.284;2023-04-02T09:03:44;97209.47;;;11.47;87.53
15932;BME280;8065;49.520;11.284;2023-04-02T09:06:15;97212.97;;;11.27;87.42
15932;BME280;8065;49.520;11.284;2023-04-02T09:08:44;97221.06;;;11.31;88.53
15932;BME280;8065;49.520;11.284;2023-04-02T09:11:17;97226.84;;;11.21;88.96
15932;BME280;8065;49.520;11.284;2023-04-02T09:13:50;97221.19;;;11.22;88.92
15932;BME280;8065;49.520;11.284;2023-04-02T09:16:18;97229.63;;;11.36;87.40
15932;BME280;8065;49.520;11.284;2023-04-02T09:18:48;97237.09;;;11.10;88.74
15932;BME280;8065;49.520;11.284;2023-04-02T09:21:29;97244.38;;;11.01;88.51
15932;BME280;8065;49.520;11.284;2023-04-02T09:23:58;97250.97;;;11.15;89.00
15932;BME280;8065;49.520;11.284;2023-04-02T09:26:27;97259.53;;;11.21;88.83
15932;BME280;8065;49.520;11.284;2023-04-02T09:29:01;97264.19;;;11.24;88.00
15932;BME280;8065;49.520;11.284;2023-04-02T09:31:38;97271.53;;;11.06;87.85
15932;BME280;8065;49.520;11.284;2023-04-02T09:34:25;97280.16;;;11.24;87.71
15932;BME280;8065;49.520;11.284;2023-04-02T09:36:52;97277.69;;;11.19;88.37
15932;BME280;8065;49.520;11.284;2023-04-02T09:39:19;97286.28;;;11.37;87.31
15932;BME280;8065;49.520;11.284;2023-04-02T09:41:46;97290.09;;;11.27;88.34
15932;BME280;8065;49.520;11.284;2023-04-02T09:44:21;97288.59;;;11.38;87.73
15932;BME280;8065;49.520;11.284;2023-04-02T09:46:53;97298.97;;;11.19;86.73
15932;BME280;8065;49.520;11.284;2023-04-02T09:49:23;97306.38;;;11.13;87.38
15932;BME280;8065;49.520;11.284;2023-04-02T09:52:17;97309.94;;;11.18;85.95
15932;BME280;8065;49.520;11.284;2023-04-02T09:54:44;97309.53;;;11.07;87.08
15932;BME280;8065;49.520;11.284;2023-04-02T09:57:20;97322.56;;;11.00;88.41
15932;BME280;8065;49.520;11.284;2023-04-02T10:00:13;97317.25;;;11.00;88.23
15932;BME280;8065;49.520;11.284;2023-04-02T10:02:43;97328.88;;;11.16;86.79
15932;BME280;8065;49.520;11.284;2023-04-02T10:05:17;97334.50;;;10.94;88.14
15932;BME280;8065;49.520;11.284;2023-04-02T10:07:45;97339.03;;;10.93;88.66
15932;BME280;8065;49.520;11.284;2023-04-02T10:10:21;97338.72;;;10.95;89.19
15932;BME280;8065;49.520;11.284;2023-04-02T10:12:52;97340.31;;;10.87;87.21
15932;BME280;8065;49.520;11.284;2023-04-02T10:15:28;97348.38;;;10.99;87.59
15932;BME280;8065;49.520;11.284;2023-04-02T10:18:05;97354.03;;;10.98;85.88
15932;BME280;8065;49.520;11.284;2023-04-02T10:20:33;97360.16;;;10.90;87.30
15932;BME280;8065;49.520;11.284;2023-04-02T10:23:03;97351.19;;;10.73;88.97
15932;BME280;8065;49.520;11.284;2023-04-02T10:25:38;97363.31;;;11.12;87.84
15932;BME280;8065;49.520;11.284;2023-04-02T10:28:12;97365.50;;;10.90;88.60
15932;BME280;8065;49.520;11.284;2023-04-02T10:30:52;97365.38;;;11.07;86.24
15932;BME280;8065;49.520;11.284;2023-04-02T10:33:26;97367.19;;;11.15;86.18
15932;BME280;8065;49.520;11.284;2023-04-02T10:36:00;97366.59;;;10.89;88.13
15932;BME280;8065;49.520;11.284;2023-04-02T10:38:35;97372.19;;;10.96;87.25
15932;BME280;8065;49.520;11.284;2023-04-02T10:41:10;97379.25;;;10.92;86.77
15932;BME280;8065;49.520;11.284;2023-04-02T10:43:49;97379.25;;;10.92;86.94
15932;BME280;8065;49.520;11.284;2023-04-02T10:46:22;97389.41;;;11.19;86.44
15932;BME280;8065;49.520;11.284;2023-04-02T10:49:01;97401.97;;;11.10;86.25
15932;BME280;8065;49.520;11.284;2023-04-02T10:51:37;97404.25;;;11.20;86.23
15932;BME280;8065;49.520;11.284;2023-04-02T10:54:18;97404.81;;;11.05;88.15
15932;BME280;8065;49.520;11.284;2023-04-02T10:56:49;97403.25;;;11.04;88.01
15932;BME280;8065;49.520;11.284;2023-04-02T10:59:20;97417.13;;;11.09;87.35
15932;BME280;8065;49.520;11.284;2023-04-02T11:01:51;97422.59;;;11.13;87.42
15932;BME280;8065;49.520;11.284;2023-04-02T11:04:23;97418.84;;;11.14;86.97
15932;BME280;8065;49.520;11.284;2023-04-02T11:06:54;97430.19;;;11.23;86.89
15932;BME280;8065;49.520;11.284;2023-04-02T11:09:26;97425.19;;;11.42;85.65
15932;BME280;8065;49.520;11.284;2023-04-02T11:11:55;97434.47;;;11.36;84.32
15932;BME280;8065;49.520;11.284;2023-04-02T11:14:25;97433.38;;;11.58;85.67
15932;BME280;8065;49.520;11.284;2023-04-02T11:16:54;97448.50;;;11.45;87.78
15932;BME280;8065;49.520;11.284;2023-04-02T11:19:26;97442.59;;;11.19;86.62
15932;BME280;8065;49.520;11.284;2023-04-02T11:21:53;97441.22;;;11.55;87.21
15932;BME280;8065;49.520;11.284;2023-04-02T11:24:31;97446.69;;;11.58;86.70
15932;BME280;8065;49.520;11.284;2023-04-02T11:27:24;97450.97;;;11.50;87.54
15932;BME280;8065;49.520;11.284;2023-04-02T11:29:56;97451.59;;;11.77;85.48
15932;BME280;8065;49.520;11.284;2023-04-02T11:32:32;97455.31;;;11.76;85.46
15932;BME280;8065;49.520;11.284;2023-04-02T11:37:49;97462.91;;;11.65;83.58
15932;BME280;8065;49.520;11.284;2023-04-02T11:40:42;97474.63;;;11.23;85.99
15932;BME280;8065;49.520;11.284;2023-04-02T11:43:47;97469.50;;;11.38;86.43
15932;BME280;8065;49.520;11.284;2023-04-02T11:46:34;97475.28;;;11.40;84.21
15932;BME280;8065;49.520;11.284;2023-04-02T11:49:35;97487.38;;;11.59;84.56
15932;BME280;8065;49.520;11.284;2023-04-02T11:52:17;97486.09;;;11.65;83.91
15932;BME280;8065;49.520;11.284;2023-04-02T11:54:45;97490.50;;;11.61;84.17
15932;BME280;8065;49.520;11.284;2023-04-02T11:57:28;97498.78;;;11.38;83.86
15932;BME280;8065;49.520;11.284;2023-04-02T12:00:10;97496.41;;;11.16;85.65
15932;BME280;8065;49.520;11.284;2023-04-02T12:02:59;97500.94;;;11.15;86.10
15932;BME280;8065;49.520;11.284;2023-04-02T12:05:37;97504.91;;;11.30;85.16
15932;BME280;8065;49.520;11.284;2023-04-02T12:08:15;97506.13;;;11.12;86.02
15932;BME280;8065;49.520;11.284;2023-04-02T12:10:55;97504.03;;;11.26;85.83
15932;BME280;8065;49.520;11.284;2023-04-02T12:13:47;97520.78;;;10.80;87.13
15932;BME280;8065;49.520;11.284;2023-04-02T12:16:15;97521.63;;;11.10;86.77
15932;BME280;8065;49.520;11.284;2023-04-02T12:18:42;97529.66;;;10.93;88.44
15932;BME280;8065;49.520;11.284;2023-04-02T12:21:15;97521.88;;;11.26;86.21
15932;BME280;8065;49.520;11.284;2023-04-02T12:23:44;97531.19;;;11.02;85.93
15932;BME280;8065;49.520;11.284;2023-04-02T12:26:26;97542.72;;;11.15;85.48
15932;BME280;8065;49.520;11.284;2023-04-02T12:28:54;97545.91;;;11.00;86.16
15932;BME280;8065;49.520;11.284;2023-04-02T12:31:23;97543.38;;;11.12;85.15
15932;BME280;8065;49.520;11.284;2023-04-02T12:33:51;97545.91;;;11.29;86.56
15932;BME280;8065;49.520;11.284;2023-04-02T12:36:20;97548.97;;;11.19;86.02
15932;BME280;8065;49.520;11.284;2023-04-02T12:38:49;97556.09;;;11.27;85.54
15932;BME280;8065;49.520;11.284;2023-04-02T12:41:21;97548.50;;;11.46;84.97
15932;BME280;8065;49.520;11.284;2023-04-02T12:43:56;97553.28;;;10.94;85.60
15932;BME280;8065;49.520;11.284;2023-04-02T12:46:23;97559.97;;;11.09;86.82
15932;BME280;8065;49.520;11.284;2023-04-02T12:48:51;97566.34;;;11.16;86.09
15932;BME280;8065;49.520;11.284;2023-04-02T12:51:19;97566.84;;;11.10;85.76
15932;BME280;8065;49.520;11.284;2023-04-02T12:53:49;97565.63;;;10.99;86.01
15932;BME280;8065;49.520;11.284;2023-04-02T12:56:18;97572.44;;;11.17;84.90
15932;BME280;8065;49.520;11.284;2023-04-02T12:58:51;97574.53;;;11.32;84.12
15932;BME280;8065;49.520;11.284;2023-04-02T13:01:19;97582.00;;;11.47;83.50
15932;BME280;8065;49.520;11.284;2023-04-02T13:04:03;97583.72;;;11.14;85.98
15932;BME280;8065;49.520;11.284;2023-04-02T13:06:31;97578.31;;;11.31;86.56
15932;BME280;8065;49.520;11.284;2023-04-02T13:08:59;97578.50;;;11.56;84.31
15932;BME280;8065;49.520;11.284;2023-04-02T13:11:33;97580.09;;;11.19;83.81
15932;BME280;8065;49.520;11.284;2023-04-02T13:14:02;97581.06;;;11.43;82.78
15932;BME280;8065;49.520;11.284;2023-04-02T13:16:33;97582.22;;;11.34;81.72
15932;BME280;8065;49.520;11.284;2023-04-02T13:19:24;97586.84;;;11.16;81.71
15932;BME280;8065;49.520;11.284;2023-04-02T13:21:54;97600.06;;;11.33;82.67
15932;BME280;8065;49.520;11.284;2023-04-02T13:24:21;97594.34;;;11.14;82.88
15932;BME280;8065;49.520;11.284;2023-04-02T13:26:50;97606.75;;;11.39;82.19
15932;BME280;8065;49.520;11.284;2023-04-02T13:29:22;97603.28;;;11.47;81.95